createdAt,value
2023-04-29T00:04:58.020Z,1.73
2023-04-29T00:10:00.169Z,1.70
2023-04-29T00:15:03.139Z,1.93
2023-04-29T00:20:06.245Z,1.67
2023-04-29T00:25:08.938Z,1.90
2023-04-29T00:30:11.357Z,1.77
2023-04-29T00:35:13.568Z,1.70
2023-04-29T00:40:16.469Z,2.07
2023-04-29T00:45:18.346Z,1.70
2023-04-29T00:50:21.556Z,1.83
2023-04-29T00:55:24.423Z,2.00
2023-04-29T01:00:26.922Z,1.90
2023-04-29T01:05:28.890Z,2.10
2023-04-29T01:10:41.717Z,1.57
2023-04-29T01:15:59.242Z,1.80
2023-04-29T01:21:01.646Z,2.10
2023-04-29T01:26:03.611Z,2.63
2023-04-29T01:31:32.689Z,2.27
2023-04-29T01:36:50.652Z,2.10
2023-04-29T01:42:23.114Z,2.20
2023-04-29T01:47:27.272Z,2.07
2023-04-29T01:52:29.924Z,3.17
2023-04-29T01:57:32.367Z,3.17
2023-04-29T02:02:42.173Z,3.20
2023-04-29T02:07:54.914Z,3.40
2023-04-29T02:12:57.159Z,3.43
2023-04-29T02:17:59.518Z,3.17
2023-04-29T02:23:01.475Z,3.20
2023-04-29T02:28:03.426Z,3.40
2023-04-29T02:33:07.748Z,3.47
2023-04-29T02:38:10.569Z,2.70
2023-04-29T02:43:12.767Z,3.90
2023-04-29T02:48:14.838Z,3.13
2023-04-29T02:53:17.229Z,2.97
2023-04-29T02:58:19.077Z,2.83
2023-04-29T03:03:20.957Z,2.70
2023-04-29T03:08:23.080Z,3.47
2023-04-29T03:13:24.970Z,2.70
2023-04-29T03:18:26.929Z,2.70
2023-04-29T03:23:29.034Z,2.50
2023-04-29T03:28:31.090Z,2.50
2023-04-29T03:33:33.079Z,2.80
2023-04-29T03:38:35.547Z,2.80
2023-04-29T03:43:39.289Z,2.70
2023-04-29T03:48:41.152Z,3.20
2023-04-29T03:53:43.285Z,3.20
2023-04-29T03:58:46.392Z,3.00
2023-04-29T04:03:48.767Z,2.30
2023-04-29T04:08:50.992Z,3.17
2023-04-29T04:13:57.617Z,3.20
2023-04-29T04:18:59.868Z,3.23
2023-04-29T04:24:01.949Z,3.63
2023-04-29T04:29:05.351Z,2.40
2023-04-29T04:34:13.521Z,2.40
2023-04-29T04:39:15.884Z,2.53
2023-04-29T04:44:18.151Z,2.57
2023-04-29T04:49:33.373Z,2.33
2023-04-29T04:54:36.193Z,2.37
2023-04-29T04:59:49.485Z,3.00
2023-04-29T05:04:51.789Z,3.20
2023-04-29T05:09:55.567Z,3.40
2023-04-29T05:14:58.204Z,3.17
2023-04-29T05:20:02.207Z,3.03
2023-04-29T05:25:05.863Z,2.67
2023-04-29T05:30:10.758Z,2.90
2023-04-29T05:35:13.067Z,3.60
2023-04-29T05:40:15.847Z,3.60
2023-04-29T05:45:18.750Z,3.10
2023-04-29T05:50:21.651Z,3.40
2023-04-29T05:55:23.833Z,3.13
2023-04-29T06:00:26.178Z,3.40
2023-04-29T06:05:36.264Z,3.70
2023-04-29T06:11:02.077Z,3.20
2023-04-29T06:16:04.587Z,3.70
2023-04-29T06:21:09.030Z,3.67
2023-04-29T06:26:11.792Z,3.03
2023-04-29T06:31:13.930Z,2.93
2023-04-29T06:36:17.218Z,2.93
2023-04-29T06:41:52.227Z,3.20
2023-04-29T06:47:20.235Z,2.80
2023-04-29T06:52:49.370Z,2.63
2023-04-29T06:57:51.528Z,3.03
2023-04-29T07:02:53.556Z,3.30
2023-04-29T07:07:55.509Z,2.43
2023-04-29T07:12:57.437Z,2.77
2023-04-29T07:18:00.537Z,2.67
2023-04-29T07:23:03.028Z,2.30
2023-04-29T07:28:09.349Z,2.50
2023-04-29T07:33:11.860Z,2.50
2023-04-29T07:38:18.719Z,2.33
2023-04-29T07:43:21.945Z,2.03
2023-04-29T07:48:27.135Z,2.30
2023-04-29T07:53:35.138Z,1.60
2023-04-29T07:58:37.287Z,1.70
2023-04-29T08:03:42.470Z,1.30
2023-04-29T08:08:49.408Z,1.37
2023-04-29T08:13:54.932Z,1.97
2023-04-29T08:19:02.314Z,2.40
2023-04-29T08:24:08.039Z,2.27
2023-04-29T08:29:11.432Z,2.20
2023-04-29T08:34:20.221Z,3.33
2023-04-29T08:39:33.375Z,2.17
2023-04-29T08:50:06.538Z,1.97
2023-04-29T08:55:19.226Z,1.97
2023-04-29T09:00:23.072Z,1.83
2023-04-29T09:05:26.962Z,1.70
2023-04-29T09:10:29.350Z,1.93
2023-04-29T09:15:37.345Z,1.33
2023-04-29T09:20:39.703Z,1.47
2023-04-29T09:25:41.890Z,1.73
2023-04-29T09:30:47.344Z,1.10
2023-04-29T09:35:49.314Z,0.90
2023-04-29T09:40:59.538Z,1.30
2023-04-29T09:46:02.971Z,1.07
2023-04-29T09:51:05.026Z,1.27
2023-04-29T09:56:07.399Z,0.80
2023-04-29T10:01:10.458Z,0.93
2023-04-29T10:06:13.370Z,0.90
2023-04-29T10:11:17.579Z,0.90
2023-04-29T10:16:31.428Z,1.10
2023-04-29T10:21:34.201Z,0.93
2023-04-29T10:26:39.404Z,1.00
2023-04-29T10:31:44.437Z,1.20
2023-04-29T10:36:47.291Z,0.70
2023-04-29T10:41:51.037Z,0.80
2023-04-29T10:47:19.283Z,0.70
2023-04-29T10:52:21.511Z,0.90
2023-04-29T10:57:25.304Z,0.87
2023-04-29T11:02:27.623Z,0.60
2023-04-29T11:07:30.304Z,0.80
2023-04-29T11:12:32.286Z,0.90
2023-04-29T11:17:38.621Z,0.90
2023-04-29T11:22:51.160Z,0.77
2023-04-29T11:27:55.472Z,0.87
2023-04-29T11:32:59.695Z,0.80
2023-04-29T11:38:02.071Z,0.60
2023-04-29T11:43:04.593Z,0.60
2023-04-29T11:48:06.731Z,0.60
2023-04-29T11:53:08.741Z,1.07
2023-04-29T11:58:10.855Z,0.90
2023-04-29T12:03:16.432Z,0.90
2023-04-29T12:08:26.909Z,0.80
2023-04-29T12:13:30.659Z,0.80
2023-04-29T12:18:32.836Z,0.60
2023-04-29T12:23:36.266Z,0.90
2023-04-29T12:28:41.434Z,0.70
2023-04-29T12:33:47.199Z,0.60
2023-04-29T12:38:49.660Z,0.80
2023-04-29T12:43:51.686Z,0.80
2023-04-29T12:48:53.604Z,0.70
2023-04-29T12:53:55.602Z,0.80
2023-04-29T12:59:04.644Z,1.23
2023-04-29T13:04:09.160Z,3.03
2023-04-29T13:09:17.074Z,1.50
2023-04-29T13:14:21.179Z,1.37
2023-04-29T13:24:27.754Z,0.93
2023-04-29T13:29:29.595Z,0.83
2023-04-29T13:34:31.512Z,0.70
2023-04-29T13:39:37.896Z,0.80
2023-04-29T13:44:52.276Z,0.87
2023-04-29T14:00:38.042Z,1.33
2023-04-29T14:05:39.768Z,0.93
2023-04-29T14:10:41.669Z,1.03
2023-04-29T14:15:43.641Z,0.83
2023-04-29T14:20:45.504Z,0.80
2023-04-29T14:25:47.463Z,0.90
2023-04-29T14:30:49.244Z,1.00
2023-04-29T14:35:51.387Z,2.97
2023-04-29T14:40:53.265Z,0.60
2023-04-29T14:45:55.750Z,0.87
2023-04-29T14:50:57.850Z,2.90
2023-04-29T14:55:59.868Z,1.30
2023-04-29T15:01:01.688Z,1.47
2023-04-29T15:06:04.225Z,0.80
2023-04-29T15:11:06.027Z,0.80
2023-04-29T15:16:08.163Z,0.70
2023-04-29T15:21:11.356Z,0.70
2023-04-29T15:26:13.441Z,0.60
2023-04-29T15:31:15.610Z,0.70
2023-04-29T15:36:17.403Z,0.80
2023-04-29T15:41:19.282Z,0.90
2023-04-29T15:46:21.755Z,0.60
2023-04-29T15:51:23.963Z,0.90
2023-04-29T15:56:26.048Z,0.80
2023-04-29T16:01:28.192Z,1.00
2023-04-29T16:06:30.215Z,0.90
2023-04-29T16:11:32.550Z,0.90
2023-04-29T16:16:34.484Z,0.90
2023-04-29T16:21:36.347Z,0.90
2023-04-29T16:26:40.384Z,1.03
2023-04-29T16:31:42.703Z,1.20
2023-04-29T16:36:44.662Z,1.00
2023-04-29T16:41:46.481Z,1.30
2023-04-29T16:46:48.351Z,0.83
2023-04-29T16:51:50.641Z,0.80
2023-04-29T16:56:52.439Z,1.10
2023-04-29T17:01:55.262Z,1.00
2023-04-29T17:06:57.196Z,1.43
2023-04-29T17:11:59.052Z,0.80
2023-04-29T17:17:00.909Z,0.67
2023-04-29T17:22:02.812Z,1.27
2023-04-29T17:27:05.414Z,1.20
2023-04-29T17:32:17.124Z,1.10
2023-04-29T17:37:24.812Z,1.00
2023-04-29T17:42:26.638Z,0.90
2023-04-29T17:47:28.578Z,1.20
2023-04-29T17:52:31.522Z,1.03
2023-04-29T17:57:33.932Z,1.80
2023-04-29T18:02:37.239Z,1.33
2023-04-29T18:07:39.354Z,1.20
2023-04-29T18:12:41.505Z,1.60
2023-04-29T18:17:44.182Z,1.40
2023-04-29T18:22:46.445Z,1.77
2023-04-29T18:27:48.496Z,1.27
2023-04-29T18:32:50.691Z,1.93
2023-04-29T18:37:52.659Z,3.00
2023-04-29T18:42:54.651Z,1.30
2023-04-29T18:47:56.600Z,2.27
2023-04-29T18:52:58.701Z,1.60
2023-04-29T18:58:00.613Z,1.37
2023-04-29T19:03:02.605Z,1.93
2023-04-29T19:08:04.855Z,2.60
2023-04-29T19:13:06.937Z,2.90
2023-04-29T19:18:09.049Z,3.40
2023-04-29T19:23:11.047Z,2.40
2023-04-29T19:28:13.325Z,2.00
2023-04-29T19:33:15.525Z,2.00
2023-04-29T19:38:17.750Z,2.23
2023-04-29T19:43:19.874Z,2.33
2023-04-29T19:48:21.851Z,2.10
2023-04-29T19:53:23.845Z,2.30
2023-04-29T19:58:28.903Z,1.87
2023-04-29T20:03:31.008Z,2.00
2023-04-29T20:08:42.199Z,2.33
2023-04-29T20:13:44.717Z,1.97
2023-04-29T20:18:48.117Z,1.80
2023-04-29T20:23:50.081Z,3.10
2023-04-29T20:28:52.377Z,1.93
2023-04-29T20:33:54.791Z,2.03
2023-04-29T20:38:59.395Z,2.00
2023-04-29T20:44:04.477Z,2.20
2023-04-29T20:49:06.512Z,2.00
2023-04-29T20:54:08.564Z,2.70
2023-04-29T20:59:10.501Z,2.37
2023-04-29T21:04:12.587Z,2.40
2023-04-29T21:09:14.520Z,2.80
2023-04-29T21:14:16.618Z,2.43
2023-04-29T21:19:18.661Z,2.10
2023-04-29T21:24:26.937Z,2.20
2023-04-29T21:29:28.888Z,2.40
2023-04-29T21:34:30.795Z,2.37
2023-04-29T21:39:32.877Z,2.37
2023-04-29T21:44:35.363Z,2.50
2023-04-29T21:49:37.503Z,2.37
2023-04-29T21:54:39.682Z,2.60
2023-04-29T21:59:41.890Z,2.90
2023-04-29T22:04:43.897Z,2.43
2023-04-29T22:09:49.634Z,3.10
2023-04-29T22:14:51.609Z,3.37
2023-04-29T22:19:54.461Z,2.47
2023-04-29T22:24:56.803Z,2.83
2023-04-29T22:29:58.724Z,3.10
2023-04-29T22:35:00.912Z,2.43
2023-04-29T22:40:03.041Z,2.80
2023-04-29T22:45:05.471Z,2.50
2023-04-29T22:50:09.743Z,2.33
2023-04-29T22:55:11.780Z,2.40
2023-04-29T23:00:14.377Z,3.03
2023-04-29T23:05:16.643Z,2.80
2023-04-29T23:10:19.322Z,2.40
2023-04-29T23:15:21.242Z,3.47
2023-04-29T23:20:23.395Z,2.93
2023-04-29T23:25:25.864Z,2.57
2023-04-29T23:30:27.905Z,2.60
2023-04-29T23:35:29.848Z,2.43
2023-04-29T23:40:33.095Z,2.53
2023-04-29T23:45:35.058Z,2.33
2023-04-29T23:50:40.019Z,2.20
2023-04-29T23:55:41.942Z,2.73
